Time;durP1;ratioP1;P1;durP2;ratioP2;P2;SDS_P1;SDS_P2;PMS_P1;PMS_P2;Temp;Humidity;BMP_temperature;BMP_pressure;BME280_temperature;BME280_humidity;BME280_pressure;Samples;Min_cycle;Max_cycle;Signal;HPM_P1;HPM_P2
2021/12/09 12:11:32;;;;;;;27.10;15.50;;;3.70;99.90;;;;;;5125561;28;20277;-73
2021/12/09 12:14:12;;;;;;;27.10;14.33;;;3.80;99.90;;;;;;5126897;28;20370;-78
2021/12/09 12:19:33;;;;;;;24.90;14.07;;;4.00;99.90;;;;;;5108791;28;20300;-80
2021/12/09 12:22:11;;;;;;;23.37;13.80;;;4.10;99.90;;;;;;5105065;28;20436;-75
2021/12/09 12:27:28;;;;;;;23.57;13.33;;;4.20;99.90;;;;;;5127702;28;20648;-81
2021/12/09 12:35:49;;;;;;;19.23;12.67;;;4.10;99.90;;;;;;5119700;28;20293;-82
2021/12/09 12:41:09;;;;;;;22.60;12.10;;;4.30;99.90;;;;;;5120131;28;20319;-80
2021/12/09 12:43:54;;;;;;;21.37;13.47;;;4.40;99.90;;;;;;5125428;28;20293;-82
2021/12/09 12:46:58;;;;;;;17.83;11.00;;;4.40;99.90;;;;;;5125454;28;20273;-82
2021/12/09 12:51:59;;;;;;;18.90;11.50;;;4.50;99.90;;;;;;5124242;27;20299;-84
2021/12/09 12:54:54;;;;;;;18.47;11.37;;;4.60;99.90;;;;;;5125504;27;20055;-80
2021/12/09 12:57:33;;;;;;;20.17;11.93;;;4.60;99.90;;;;;;5126152;28;20289;-81
2021/12/09 13:00:29;;;;;;;25.80;13.83;;;4.60;99.90;;;;;;5113157;28;20304;-80
2021/12/09 13:08:42;;;;;;;18.10;12.40;;;4.70;99.90;;;;;;5108365;28;20285;-79
2021/12/09 13:11:16;;;;;;;17.25;11.45;;;4.70;99.90;;;;;;5123834;28;20388;-76
2021/12/09 13:19:28;;;;;;;17.60;11.80;;;4.70;99.90;;;;;;5093491;28;20297;-78
2021/12/09 13:22:28;;;;;;;19.03;11.60;;;4.70;99.90;;;;;;5093450;28;20285;-81
2021/12/09 13:25:14;;;;;;;20.33;12.70;;;4.60;99.90;;;;;;5091450;28;20512;-82
2021/12/09 13:30:42;;;;;;;23.03;12.93;;;4.70;99.90;;;;;;5091953;28;20380;-84
2021/12/09 13:47:34;;;;;;;19.83;11.70;;;4.60;99.90;;;;;;5063212;28;20800;-81
2021/12/09 13:50:32;;;;;;;52.33;15.27;;;4.60;99.90;;;;;;5093948;28;20293;-81
2021/12/09 13:55:29;;;;;;;22.07;13.30;;;4.50;99.90;;;;;;5111277;28;20661;-80
2021/12/09 13:58:00;;;;;;;24.73;14.13;;;4.40;99.90;;;;;;5112176;28;20058;-78
2021/12/09 19:40:48;;;;;;;39.10;23.90;;;4.90;99.90;;;;;;5103596;27;1180252;-77
2021/12/09 19:43:13;;;;;;;44.30;25.80;;;4.90;99.90;;;;;;5127386;28;20047;-83
2021/12/09 19:45:39;;;;;;;37.77;25.57;;;4.90;99.90;;;;;;5127260;28;20040;-82
2021/12/09 19:48:06;;;;;;;36.90;23.90;;;4.90;99.90;;;;;;5109041;28;20047;-79
2021/12/09 19:50:32;;;;;;;46.77;28.13;;;4.90;99.90;;;;;;5109396;28;20079;-78
2021/12/09 19:52:58;;;;;;;45.97;27.60;;;5.00;99.90;;;;;;5126776;28;20273;-78
2021/12/09 19:55:28;;;;;;;43.17;29.10;;;5.00;99.90;;;;;;5125747;28;20341;-88
2021/12/09 19:57:55;;;;;;;38.87;26.53;;;5.10;99.90;;;;;;5127019;28;20095;-77
2021/12/09 20:00:27;;;;;;;39.77;27.07;;;5.10;99.90;;;;;;5107828;28;20320;-77
2021/12/09 20:02:54;;;;;;;40.63;28.33;;;5.20;99.90;;;;;;5107551;28;20281;-78
2021/12/09 20:05:20;;;;;;;44.30;28.60;;;5.20;99.90;;;;;;5108167;28;20293;-76
2021/12/09 20:07:46;;;;;;;40.37;26.23;;;5.20;99.90;;;;;;5126154;28;20367;-78
2021/12/09 20:10:13;;;;;;;42.83;28.00;;;5.30;99.90;;;;;;5125850;28;20697;-74
2021/12/09 20:12:40;;;;;;;36.03;26.93;;;5.30;99.90;;;;;;5126014;28;20372;-77
2021/12/09 20:15:08;;;;;;;41.17;27.97;;;5.30;99.90;;;;;;5107307;28;20289;-79
2021/12/09 20:17:34;;;;;;;40.27;26.00;;;5.30;99.90;;;;;;5107579;28;20291;-73
2021/12/09 20:20:00;;;;;;;44.17;27.67;;;5.40;99.90;;;;;;5108143;28;20323;-73
2021/12/09 20:22:27;;;;;;;44.13;27.73;;;5.40;99.90;;;;;;5125353;28;20277;-79
2021/12/09 20:24:55;;;;;;;41.90;26.13;;;5.40;99.90;;;;;;5107884;28;20051;-76
2021/12/09 20:27:21;;;;;;;37.80;24.80;;;5.50;99.90;;;;;;5126833;27;20285;-75
